sensor_id;sensor_type;location;lat;lon;timestamp;P1;durP1;ratioP1;P2;durP2;ratioP2
78057;SDS011;67265;52.514;13.292;2023-04-28T00:02:00;5.65;;;1.80;;
78057;SDS011;67265;52.514;13.292;2023-04-28T00:04:27;3.33;;;1.48;;
78057;SDS011;67265;52.514;13.292;2023-04-28T00:06:54;5.13;;;2.58;;
78057;SDS011;67265;52.514;13.292;2023-04-28T00:09:21;4.80;;;1.77;;
78057;SDS011;67265;52.514;13.292;2023-04-28T00:11:47;5.38;;;2.20;;
78057;SDS011;67265;52.514;13.292;2023-04-28T00:14:14;4.78;;;1.90;;
78057;SDS011;67265;52.514;13.292;2023-04-28T00:16:41;2.97;;;1.45;;
78057;SDS011;67265;52.514;13.292;2023-04-28T00:19:07;5.57;;;2.40;;
78057;SDS011;67265;52.514;13.292;2023-04-28T00:21:34;3.50;;;2.10;;
78057;SDS011;67265;52.514;13.292;2023-04-28T00:24:01;4.95;;;1.65;;
78057;SDS011;67265;52.514;13.292;2023-04-28T00:26:27;4.72;;;1.88;;
78057;SDS011;67265;52.514;13.292;2023-04-28T00:28:53;6.35;;;1.55;;
78057;SDS011;67265;52.514;13.292;2023-04-28T00:31:20;7.93;;;1.80;;
78057;SDS011;67265;52.514;13.292;2023-04-28T00:33:47;3.95;;;1.63;;
78057;SDS011;67265;52.514;13.292;2023-04-28T00:36:13;3.20;;;1.90;;
78057;SDS011;67265;52.514;13.292;2023-04-28T00:38:39;4.43;;;1.58;;
78057;SDS011;67265;52.514;13.292;2023-04-28T00:41:08;4.30;;;1.75;;
78057;SDS011;67265;52.514;13.292;2023-04-28T00:43:45;5.00;;;1.83;;
78057;SDS011;67265;52.514;13.292;2023-04-28T00:46:24;3.53;;;1.55;;
78057;SDS011;67265;52.514;13.292;2023-04-28T00:48:52;5.28;;;1.48;;
78057;SDS011;67265;52.514;13.292;2023-04-28T00:51:19;4.32;;;2.00;;
78057;SDS011;67265;52.514;13.292;2023-04-28T00:53:46;2.95;;;1.63;;
78057;SDS011;67265;52.514;13.292;2023-04-28T00:56:13;5.63;;;2.08;;
78057;SDS011;67265;52.514;13.292;2023-04-28T00:58:39;5.80;;;1.90;;
78057;SDS011;67265;52.514;13.292;2023-04-28T01:01:07;3.22;;;1.75;;
78057;SDS011;67265;52.514;13.292;2023-04-28T01:03:35;3.65;;;1.83;;
78057;SDS011;67265;52.514;13.292;2023-04-28T01:06:04;5.68;;;1.70;;
78057;SDS011;67265;52.514;13.292;2023-04-28T01:08:31;4.47;;;1.85;;
78057;SDS011;67265;52.514;13.292;2023-04-28T01:10:58;5.03;;;1.90;;
78057;SDS011;67265;52.514;13.292;2023-04-28T01:13:25;3.95;;;1.55;;
78057;SDS011;67265;52.514;13.292;2023-04-28T01:15:52;3.20;;;1.63;;
78057;SDS011;67265;52.514;13.292;2023-04-28T01:18:18;5.15;;;1.55;;
78057;SDS011;67265;52.514;13.292;2023-04-28T01:20:45;2.85;;;1.77;;
78057;SDS011;67265;52.514;13.292;2023-04-28T01:23:12;4.88;;;1.42;;
78057;SDS011;67265;52.514;13.292;2023-04-28T01:25:39;5.45;;;1.67;;
78057;SDS011;67265;52.514;13.292;2023-04-28T01:28:06;2.53;;;1.13;;
78057;SDS011;67265;52.514;13.292;2023-04-28T01:30:33;3.00;;;1.30;;
78057;SDS011;67265;52.514;13.292;2023-04-28T01:33:01;3.50;;;1.80;;
78057;SDS011;67265;52.514;13.292;2023-04-28T01:35:28;4.10;;;1.77;;
78057;SDS011;67265;52.514;13.292;2023-04-28T01:37:55;5.55;;;1.67;;
78057;SDS011;67265;52.514;13.292;2023-04-28T01:40:22;3.08;;;1.30;;
78057;SDS011;67265;52.514;13.292;2023-04-28T01:42:48;3.35;;;1.35;;
78057;SDS011;67265;52.514;13.292;2023-04-28T01:45:15;4.82;;;1.40;;
78057;SDS011;67265;52.514;13.292;2023-04-28T01:47:41;4.13;;;1.60;;
78057;SDS011;67265;52.514;13.292;2023-04-28T01:50:08;3.55;;;1.90;;
78057;SDS011;67265;52.514;13.292;2023-04-28T01:52:34;3.85;;;1.85;;
78057;SDS011;67265;52.514;13.292;2023-04-28T01:55:01;5.70;;;1.80;;
78057;SDS011;67265;52.514;13.292;2023-04-28T01:57:27;5.32;;;1.80;;
78057;SDS011;67265;52.514;13.292;2023-04-28T01:59:54;4.05;;;1.52;;
78057;SDS011;67265;52.514;13.292;2023-04-28T02:02:21;4.28;;;1.48;;
78057;SDS011;67265;52.514;13.292;2023-04-28T02:04:47;3.33;;;1.50;;
78057;SDS011;67265;52.514;13.292;2023-04-28T02:07:14;5.97;;;2.08;;
78057;SDS011;67265;52.514;13.292;2023-04-28T02:09:40;6.05;;;1.70;;
78057;SDS011;67265;52.514;13.292;2023-04-28T02:12:07;3.30;;;1.20;;
78057;SDS011;67265;52.514;13.292;2023-04-28T02:14:33;3.20;;;1.67;;
78057;SDS011;67265;52.514;13.292;2023-04-28T02:17:00;4.53;;;1.75;;
78057;SDS011;67265;52.514;13.292;2023-04-28T02:19:28;2.90;;;1.50;;
78057;SDS011;67265;52.514;13.292;2023-04-28T02:21:54;3.05;;;1.63;;
78057;SDS011;67265;52.514;13.292;2023-04-28T02:24:21;6.93;;;1.52;;
78057;SDS011;67265;52.514;13.292;2023-04-28T02:26:48;3.55;;;1.55;;
78057;SDS011;67265;52.514;13.292;2023-04-28T02:29:14;5.05;;;2.08;;
78057;SDS011;67265;52.514;13.292;2023-04-28T02:31:41;5.80;;;1.42;;
78057;SDS011;67265;52.514;13.292;2023-04-28T02:34:07;3.30;;;1.60;;
78057;SDS011;67265;52.514;13.292;2023-04-28T02:36:34;7.90;;;2.45;;
78057;SDS011;67265;52.514;13.292;2023-04-28T02:39:01;4.20;;;1.83;;
78057;SDS011;67265;52.514;13.292;2023-04-28T02:41:27;3.47;;;1.65;;
78057;SDS011;67265;52.514;13.292;2023-04-28T02:43:56;4.25;;;2.00;;
78057;SDS011;67265;52.514;13.292;2023-04-28T02:46:22;3.28;;;1.58;;
78057;SDS011;67265;52.514;13.292;2023-04-28T02:48:49;3.65;;;1.65;;
78057;SDS011;67265;52.514;13.292;2023-04-28T02:51:15;4.85;;;1.95;;
78057;SDS011;67265;52.514;13.292;2023-04-28T02:53:42;3.92;;;1.85;;
78057;SDS011;67265;52.514;13.292;2023-04-28T02:56:08;6.78;;;2.20;;
78057;SDS011;67265;52.514;13.292;2023-04-28T02:58:35;3.55;;;1.90;;
78057;SDS011;67265;52.514;13.292;2023-04-28T03:01:01;4.72;;;1.80;;
78057;SDS011;67265;52.514;13.292;2023-04-28T03:03:28;6.78;;;2.45;;
78057;SDS011;67265;52.514;13.292;2023-04-28T03:05:54;4.13;;;1.90;;
78057;SDS011;67265;52.514;13.292;2023-04-28T03:08:22;6.32;;;2.33;;
78057;SDS011;67265;52.514;13.292;2023-04-28T03:10:48;7.53;;;1.80;;
78057;SDS011;67265;52.514;13.292;2023-04-28T03:13:15;5.25;;;2.17;;
78057;SDS011;67265;52.514;13.292;2023-04-28T03:15:41;3.67;;;1.80;;
78057;SDS011;67265;52.514;13.292;2023-04-28T03:18:08;4.65;;;2.35;;
78057;SDS011;67265;52.514;13.292;2023-04-28T03:20:34;5.22;;;2.13;;
78057;SDS011;67265;52.514;13.292;2023-04-28T03:23:01;7.25;;;2.00;;
78057;SDS011;67265;52.514;13.292;2023-04-28T03:25:28;5.55;;;1.98;;
78057;SDS011;67265;52.514;13.292;2023-04-28T03:27:54;4.75;;;1.83;;
78057;SDS011;67265;52.514;13.292;2023-04-28T03:30:21;3.28;;;1.75;;
78057;SDS011;67265;52.514;13.292;2023-04-28T03:32:47;5.93;;;2.40;;
78057;SDS011;67265;52.514;13.292;2023-04-28T03:35:14;3.85;;;1.90;;
78057;SDS011;67265;52.514;13.292;2023-04-28T03:37:40;6.38;;;1.65;;
78057;SDS011;67265;52.514;13.292;2023-04-28T03:40:09;7.65;;;2.10;;
78057;SDS011;67265;52.514;13.292;2023-04-28T03:42:36;4.13;;;2.15;;
78057;SDS011;67265;52.514;13.292;2023-04-28T03:45:03;3.63;;;2.00;;
78057;SDS011;67265;52.514;13.292;2023-04-28T03:47:29;7.88;;;2.17;;
78057;SDS011;67265;52.514;13.292;2023-04-28T03:49:56;8.10;;;2.28;;
78057;SDS011;67265;52.514;13.292;2023-04-28T03:52:24;4.35;;;2.03;;
78057;SDS011;67265;52.514;13.292;2023-04-28T03:54:51;6.65;;;2.38;;
78057;SDS011;67265;52.514;13.292;2023-04-28T03:57:17;5.30;;;2.35;;
78057;SDS011;67265;52.514;13.292;2023-04-28T03:59:44;4.20;;;1.92;;
78057;SDS011;67265;52.514;13.292;2023-04-28T04:02:11;4.07;;;2.13;;
78057;SDS011;67265;52.514;13.292;2023-04-28T04:04:37;4.97;;;2.45;;
78057;SDS011;67265;52.514;13.292;2023-04-28T04:07:04;7.97;;;2.22;;
78057;SDS011;67265;52.514;13.292;2023-04-28T04:09:31;4.25;;;2.00;;
78057;SDS011;67265;52.514;13.292;2023-04-28T04:11:57;6.70;;;2.33;;
78057;SDS011;67265;52.514;13.292;2023-04-28T04:14:26;4.65;;;2.10;;
78057;SDS011;67265;52.514;13.292;2023-04-28T04:16:52;6.53;;;2.20;;
78057;SDS011;67265;52.514;13.292;2023-04-28T04:19:20;6.95;;;2.65;;
78057;SDS011;67265;52.514;13.292;2023-04-28T04:21:49;4.75;;;1.90;;
78057;SDS011;67265;52.514;13.292;2023-04-28T04:24:15;5.90;;;2.47;;
78057;SDS011;67265;52.514;13.292;2023-04-28T04:26:42;4.13;;;1.85;;
78057;SDS011;67265;52.514;13.292;2023-04-28T04:29:09;5.70;;;2.42;;
78057;SDS011;67265;52.514;13.292;2023-04-28T04:31:36;3.67;;;2.10;;
78057;SDS011;67265;52.514;13.292;2023-04-28T04:34:02;5.05;;;2.15;;
78057;SDS011;67265;52.514;13.292;2023-04-28T04:36:29;5.90;;;2.13;;
78057;SDS011;67265;52.514;13.292;2023-04-28T04:38:55;10.88;;;3.05;;
78057;SDS011;67265;52.514;13.292;2023-04-28T04:41:22;3.95;;;1.92;;
78057;SDS011;67265;52.514;13.292;2023-04-28T04:43:48;4.70;;;2.22;;
78057;SDS011;67265;52.514;13.292;2023-04-28T04:46:15;5.55;;;2.42;;
78057;SDS011;67265;52.514;13.292;2023-04-28T04:48:42;6.18;;;2.63;;
78057;SDS011;67265;52.514;13.292;2023-04-28T04:51:08;4.90;;;1.98;;
78057;SDS011;67265;52.514;13.292;2023-04-28T04:53:35;4.45;;;1.90;;
78057;SDS011;67265;52.514;13.292;2023-04-28T04:56:01;8.18;;;2.45;;
78057;SDS011;67265;52.514;13.292;2023-04-28T04:58:28;5.90;;;2.08;;
78057;SDS011;67265;52.514;13.292;2023-04-28T05:00:55;7.82;;;2.33;;
78057;SDS011;67265;52.514;13.292;2023-04-28T05:03:21;7.07;;;2.22;;
78057;SDS011;67265;52.514;13.292;2023-04-28T05:05:48;6.63;;;2.50;;
78057;SDS011;67265;52.514;13.292;2023-04-28T05:08:14;4.72;;;2.03;;
78057;SDS011;67265;52.514;13.292;2023-04-28T05:10:41;4.50;;;2.35;;
78057;SDS011;67265;52.514;13.292;2023-04-28T05:13:07;4.88;;;1.85;;
78057;SDS011;67265;52.514;13.292;2023-04-28T05:15:34;4.90;;;2.20;;
78057;SDS011;67265;52.514;13.292;2023-04-28T05:18:00;4.38;;;2.03;;
78057;SDS011;67265;52.514;13.292;2023-04-28T05:20:34;5.25;;;2.22;;
78057;SDS011;67265;52.514;13.292;2023-04-28T05:23:00;5.72;;;2.50;;
78057;SDS011;67265;52.514;13.292;2023-04-28T05:25:27;5.50;;;2.08;;
78057;SDS011;67265;52.514;13.292;2023-04-28T05:27:55;7.25;;;2.17;;
78057;SDS011;67265;52.514;13.292;2023-04-28T05:30:22;7.05;;;2.15;;
78057;SDS011;67265;52.514;13.292;2023-04-28T05:32:49;5.88;;;2.47;;
78057;SDS011;67265;52.514;13.292;2023-04-28T05:35:15;4.93;;;2.03;;
78057;SDS011;67265;52.514;13.292;2023-04-28T05:37:42;5.13;;;2.33;;
78057;SDS011;67265;52.514;13.292;2023-04-28T05:40:10;6.18;;;2.22;;
78057;SDS011;67265;52.514;13.292;2023-04-28T05:42:36;4.75;;;2.35;;
78057;SDS011;67265;52.514;13.292;2023-04-28T05:45:03;6.35;;;2.33;;
78057;SDS011;67265;52.514;13.292;2023-04-28T05:47:31;5.63;;;2.42;;
78057;SDS011;67265;52.514;13.292;2023-04-28T05:49:57;5.80;;;3.03;;
78057;SDS011;67265;52.514;13.292;2023-04-28T05:52:24;4.70;;;1.90;;
78057;SDS011;67265;52.514;13.292;2023-04-28T05:54:50;3.97;;;2.10;;
78057;SDS011;67265;52.514;13.292;2023-04-28T05:57:17;5.25;;;2.25;;
78057;SDS011;67265;52.514;13.292;2023-04-28T05:59:43;5.65;;;2.30;;
78057;SDS011;67265;52.514;13.292;2023-04-28T06:02:10;5.78;;;2.53;;
78057;SDS011;67265;52.514;13.292;2023-04-28T06:04:37;5.18;;;2.28;;
78057;SDS011;67265;52.514;13.292;2023-04-28T06:07:04;10.55;;;2.40;;
78057;SDS011;67265;52.514;13.292;2023-04-28T06:09:31;3.88;;;2.08;;
78057;SDS011;67265;52.514;13.292;2023-04-28T06:11:57;5.78;;;2.78;;
78057;SDS011;67265;52.514;13.292;2023-04-28T06:14:24;5.38;;;1.90;;
78057;SDS011;67265;52.514;13.292;2023-04-28T06:16:54;5.60;;;2.00;;
78057;SDS011;67265;52.514;13.292;2023-04-28T06:19:20;3.65;;;1.90;;
78057;SDS011;67265;52.514;13.292;2023-04-28T06:21:47;6.65;;;2.85;;
78057;SDS011;67265;52.514;13.292;2023-04-28T06:24:16;5.45;;;2.20;;
78057;SDS011;67265;52.514;13.292;2023-04-28T06:26:43;6.90;;;2.08;;
78057;SDS011;67265;52.514;13.292;2023-04-28T06:29:10;3.17;;;1.77;;
78057;SDS011;67265;52.514;13.292;2023-04-28T06:31:36;6.53;;;1.65;;
78057;SDS011;67265;52.514;13.292;2023-04-28T06:34:03;5.32;;;2.38;;
78057;SDS011;67265;52.514;13.292;2023-04-28T06:36:29;7.07;;;2.05;;
78057;SDS011;67265;52.514;13.292;2023-04-28T06:38:56;5.20;;;2.38;;
78057;SDS011;67265;52.514;13.292;2023-04-28T06:41:23;5.88;;;2.30;;
78057;SDS011;67265;52.514;13.292;2023-04-28T06:43:50;4.97;;;1.85;;
78057;SDS011;67265;52.514;13.292;2023-04-28T06:46:17;9.18;;;2.75;;
78057;SDS011;67265;52.514;13.292;2023-04-28T06:48:44;6.13;;;2.40;;
78057;SDS011;67265;52.514;13.292;2023-04-28T06:51:10;5.90;;;2.60;;
78057;SDS011;67265;52.514;13.292;2023-04-28T06:53:37;9.45;;;2.53;;
78057;SDS011;67265;52.514;13.292;2023-04-28T06:56:04;3.92;;;2.10;;
78057;SDS011;67265;52.514;13.292;2023-04-28T06:58:31;4.75;;;2.20;;
78057;SDS011;67265;52.514;13.292;2023-04-28T07:00:59;3.85;;;2.33;;
78057;SDS011;67265;52.514;13.292;2023-04-28T07:03:25;4.97;;;2.75;;
78057;SDS011;67265;52.514;13.292;2023-04-28T07:05:53;5.65;;;2.58;;
78057;SDS011;67265;52.514;13.292;2023-04-28T07:08:19;6.13;;;2.17;;
78057;SDS011;67265;52.514;13.292;2023-04-28T07:10:46;5.05;;;1.98;;
78057;SDS011;67265;52.514;13.292;2023-04-28T07:13:12;4.88;;;2.30;;
78057;SDS011;67265;52.514;13.292;2023-04-28T07:15:39;3.85;;;1.95;;
78057;SDS011;67265;52.514;13.292;2023-04-28T07:18:05;4.85;;;1.95;;
78057;SDS011;67265;52.514;13.292;2023-04-28T07:20:32;8.45;;;2.22;;
78057;SDS011;67265;52.514;13.292;2023-04-28T07:22:59;3.58;;;2.00;;
78057;SDS011;67265;52.514;13.292;2023-04-28T07:25:25;4.95;;;1.90;;
78057;SDS011;67265;52.514;13.292;2023-04-28T07:27:52;6.53;;;1.90;;
78057;SDS011;67265;52.514;13.292;2023-04-28T07:30:19;4.55;;;1.85;;
78057;SDS011;67265;52.514;13.292;2023-04-28T07:32:53;8.48;;;2.22;;
78057;SDS011;67265;52.514;13.292;2023-04-28T07:35:20;3.88;;;1.88;;
78057;SDS011;67265;52.514;13.292;2023-04-28T07:37:47;4.93;;;1.75;;
78057;SDS011;67265;52.514;13.292;2023-04-28T07:40:14;7.45;;;2.42;;
78057;SDS011;67265;52.514;13.292;2023-04-28T07:42:40;5.03;;;1.75;;
78057;SDS011;67265;52.514;13.292;2023-04-28T07:45:07;3.90;;;1.95;;
78057;SDS011;67265;52.514;13.292;2023-04-28T07:47:34;4.40;;;1.98;;
78057;SDS011;67265;52.514;13.292;2023-04-28T07:50:01;3.08;;;1.63;;
78057;SDS011;67265;52.514;13.292;2023-04-28T07:52:30;6.47;;;1.92;;
78057;SDS011;67265;52.514;13.292;2023-04-28T07:54:59;5.00;;;2.05;;
78057;SDS011;67265;52.514;13.292;2023-04-28T07:57:27;4.75;;;2.20;;
78057;SDS011;67265;52.514;13.292;2023-04-28T07:59:56;4.97;;;2.20;;
78057;SDS011;67265;52.514;13.292;2023-04-28T08:02:23;4.75;;;1.83;;
78057;SDS011;67265;52.514;13.292;2023-04-28T08:04:51;4.70;;;1.90;;
78057;SDS011;67265;52.514;13.292;2023-04-28T08:07:18;5.38;;;2.00;;
78057;SDS011;67265;52.514;13.292;2023-04-28T08:09:44;5.35;;;1.50;;
78057;SDS011;67265;52.514;13.292;2023-04-28T08:12:12;4.68;;;2.17;;
78057;SDS011;67265;52.514;13.292;2023-04-28T08:14:39;4.80;;;2.13;;
78057;SDS011;67265;52.514;13.292;2023-04-28T08:17:06;6.80;;;1.65;;
78057;SDS011;67265;52.514;13.292;2023-04-28T08:19:33;3.75;;;1.65;;
78057;SDS011;67265;52.514;13.292;2023-04-28T08:22:00;4.18;;;2.10;;
78057;SDS011;67265;52.514;13.292;2023-04-28T08:24:30;5.28;;;2.13;;
78057;SDS011;67265;52.514;13.292;2023-04-28T08:27:00;4.57;;;2.05;;
78057;SDS011;67265;52.514;13.292;2023-04-28T08:29:28;4.15;;;1.75;;
78057;SDS011;67265;52.514;13.292;2023-04-28T08:31:55;4.07;;;1.90;;
78057;SDS011;67265;52.514;13.292;2023-04-28T08:34:22;3.80;;;1.90;;
78057;SDS011;67265;52.514;13.292;2023-04-28T08:36:50;3.78;;;1.88;;
78057;SDS011;67265;52.514;13.292;2023-04-28T08:39:16;3.72;;;2.05;;
78057;SDS011;67265;52.514;13.292;2023-04-28T08:41:43;5.82;;;1.98;;
78057;SDS011;67265;52.514;13.292;2023-04-28T08:44:09;4.40;;;2.00;;
78057;SDS011;67265;52.514;13.292;2023-04-28T08:46:40;4.35;;;2.20;;
78057;SDS011;67265;52.514;13.292;2023-04-28T08:49:09;3.15;;;1.98;;
78057;SDS011;67265;52.514;13.292;2023-04-28T08:51:45;5.15;;;2.20;;
78057;SDS011;67265;52.514;13.292;2023-04-28T08:54:15;6.20;;;2.30;;
78057;SDS011;67265;52.514;13.292;2023-04-28T08:56:54;4.07;;;1.55;;
78057;SDS011;67265;52.514;13.292;2023-04-28T08:59:24;4.28;;;1.80;;
78057;SDS011;67265;52.514;13.292;2023-04-28T09:01:50;4.53;;;2.13;;
78057;SDS011;67265;52.514;13.292;2023-04-28T09:04:17;5.50;;;1.65;;
78057;SDS011;67265;52.514;13.292;2023-04-28T09:06:45;4.40;;;2.15;;
78057;SDS011;67265;52.514;13.292;2023-04-28T09:12:00;5.78;;;2.30;;
78057;SDS011;67265;52.514;13.292;2023-04-28T09:14:33;5.93;;;1.98;;
78057;SDS011;67265;52.514;13.292;2023-04-28T09:17:01;8.85;;;2.08;;
78057;SDS011;67265;52.514;13.292;2023-04-28T09:19:34;5.63;;;2.50;;
78057;SDS011;67265;52.514;13.292;2023-04-28T09:22:01;6.35;;;2.20;;
78057;SDS011;67265;52.514;13.292;2023-04-28T09:24:49;3.60;;;2.08;;
78057;SDS011;67265;52.514;13.292;2023-04-28T09:27:15;7.75;;;2.28;;
78057;SDS011;67265;52.514;13.292;2023-04-28T09:29:50;4.03;;;2.03;;
78057;SDS011;67265;52.514;13.292;2023-04-28T09:32:19;6.07;;;2.22;;
78057;SDS011;67265;52.514;13.292;2023-04-28T09:34:47;6.35;;;2.42;;
78057;SDS011;67265;52.514;13.292;2023-04-28T09:39:46;4.25;;;2.38;;
78057;SDS011;67265;52.514;13.292;2023-04-28T09:45:17;5.65;;;2.70;;
78057;SDS011;67265;52.514;13.292;2023-04-28T09:47:44;3.17;;;2.28;;
78057;SDS011;67265;52.514;13.292;2023-04-28T09:50:13;5.97;;;2.50;;
78057;SDS011;67265;52.514;13.292;2023-04-28T09:52:43;6.25;;;2.65;;
78057;SDS011;67265;52.514;13.292;2023-04-28T09:55:11;7.20;;;2.88;;
78057;SDS011;67265;52.514;13.292;2023-04-28T09:57:38;5.13;;;2.80;;
78057;SDS011;67265;52.514;13.292;2023-04-28T10:00:05;7.15;;;2.70;;
78057;SDS011;67265;52.514;13.292;2023-04-28T10:02:34;8.70;;;2.50;;
78057;SDS011;67265;52.514;13.292;2023-04-28T10:05:05;6.90;;;3.00;;
78057;SDS011;67265;52.514;13.292;2023-04-28T10:07:35;7.60;;;2.42;;
78057;SDS011;67265;52.514;13.292;2023-04-28T10:10:02;4.97;;;2.47;;
78057;SDS011;67265;52.514;13.292;2023-04-28T10:12:29;6.55;;;2.53;;
78057;SDS011;67265;52.514;13.292;2023-04-28T10:14:55;6.43;;;3.05;;
78057;SDS011;67265;52.514;13.292;2023-04-28T10:17:23;6.07;;;2.67;;
78057;SDS011;67265;52.514;13.292;2023-04-28T10:19:54;5.30;;;2.55;;
78057;SDS011;67265;52.514;13.292;2023-04-28T10:25:31;5.80;;;2.60;;
78057;SDS011;67265;52.514;13.292;2023-04-28T10:27:59;4.28;;;2.70;;
78057;SDS011;67265;52.514;13.292;2023-04-28T10:30:26;7.15;;;2.83;;
78057;SDS011;67265;52.514;13.292;2023-04-28T10:38:18;6.13;;;2.60;;
78057;SDS011;67265;52.514;13.292;2023-04-28T10:40:51;7.28;;;2.63;;
78057;SDS011;67265;52.514;13.292;2023-04-28T10:56:12;8.68;;;2.92;;
78057;SDS011;67265;52.514;13.292;2023-04-28T10:58:40;8.82;;;2.88;;
78057;SDS011;67265;52.514;13.292;2023-04-28T11:06:23;8.77;;;3.00;;
78057;SDS011;67265;52.514;13.292;2023-04-28T11:08:58;8.68;;;2.85;;
78057;SDS011;67265;52.514;13.292;2023-04-28T11:21:40;8.02;;;3.72;;
78057;SDS011;67265;52.514;13.292;2023-04-28T11:24:08;6.82;;;3.28;;
78057;SDS011;67265;52.514;13.292;2023-04-28T11:26:36;6.25;;;2.97;;
78057;SDS011;67265;52.514;13.292;2023-04-28T11:29:04;7.68;;;2.70;;
78057;SDS011;67265;52.514;13.292;2023-04-28T11:31:31;7.03;;;2.80;;
78057;SDS011;67265;52.514;13.292;2023-04-28T11:33:58;8.25;;;3.05;;
78057;SDS011;67265;52.514;13.292;2023-04-28T11:36:27;5.78;;;2.50;;
78057;SDS011;67265;52.514;13.292;2023-04-28T11:38:57;5.38;;;2.75;;
78057;SDS011;67265;52.514;13.292;2023-04-28T11:41:24;5.80;;;3.35;;
78057;SDS011;67265;52.514;13.292;2023-04-28T11:43:51;6.70;;;3.05;;
78057;SDS011;67265;52.514;13.292;2023-04-28T11:46:19;8.13;;;3.60;;
78057;SDS011;67265;52.514;13.292;2023-04-28T11:48:47;5.18;;;2.97;;
78057;SDS011;67265;52.514;13.292;2023-04-28T11:51:30;5.90;;;3.08;;
78057;SDS011;67265;52.514;13.292;2023-04-28T11:54:04;7.15;;;3.13;;
78057;SDS011;67265;52.514;13.292;2023-04-28T11:56:37;8.25;;;3.42;;
78057;SDS011;67265;52.514;13.292;2023-04-28T11:59:08;7.78;;;3.40;;
78057;SDS011;67265;52.514;13.292;2023-04-28T12:01:48;5.97;;;2.83;;
78057;SDS011;67265;52.514;13.292;2023-04-28T12:09:30;7.07;;;3.22;;
78057;SDS011;67265;52.514;13.292;2023-04-28T12:11:59;8.70;;;3.28;;
78057;SDS011;67265;52.514;13.292;2023-04-28T12:14:28;5.20;;;2.80;;
78057;SDS011;67265;52.514;13.292;2023-04-28T12:16:55;6.00;;;2.90;;
78057;SDS011;67265;52.514;13.292;2023-04-28T12:19:22;7.30;;;2.80;;
78057;SDS011;67265;52.514;13.292;2023-04-28T12:24:25;8.45;;;2.92;;
78057;SDS011;67265;52.514;13.292;2023-04-28T12:26:52;7.85;;;3.13;;
78057;SDS011;67265;52.514;13.292;2023-04-28T12:32:16;9.27;;;3.72;;
78057;SDS011;67265;52.514;13.292;2023-04-28T12:34:44;6.13;;;3.03;;
78057;SDS011;67265;52.514;13.292;2023-04-28T12:37:11;7.13;;;3.15;;
78057;SDS011;67265;52.514;13.292;2023-04-28T12:39:38;8.10;;;3.25;;
78057;SDS011;67265;52.514;13.292;2023-04-28T12:42:05;5.38;;;3.13;;
78057;SDS011;67265;52.514;13.292;2023-04-28T12:44:33;5.43;;;3.15;;
78057;SDS011;67265;52.514;13.292;2023-04-28T12:47:10;6.55;;;3.00;;
78057;SDS011;67265;52.514;13.292;2023-04-28T12:49:36;7.47;;;3.22;;
78057;SDS011;67265;52.514;13.292;2023-04-28T12:52:03;6.68;;;2.90;;
78057;SDS011;67265;52.514;13.292;2023-04-28T12:54:30;6.22;;;3.35;;
78057;SDS011;67265;52.514;13.292;2023-04-28T12:56:57;7.35;;;3.33;;
78057;SDS011;67265;52.514;13.292;2023-04-28T12:59:23;8.48;;;3.25;;
78057;SDS011;67265;52.514;13.292;2023-04-28T13:01:50;7.85;;;3.20;;
78057;SDS011;67265;52.514;13.292;2023-04-28T13:04:17;5.88;;;2.75;;
78057;SDS011;67265;52.514;13.292;2023-04-28T13:06:44;7.47;;;3.35;;
78057;SDS011;67265;52.514;13.292;2023-04-28T13:09:14;6.38;;;3.22;;
78057;SDS011;67265;52.514;13.292;2023-04-28T13:11:41;6.40;;;3.35;;
78057;SDS011;67265;52.514;13.292;2023-04-28T13:14:08;8.57;;;2.70;;
78057;SDS011;67265;52.514;13.292;2023-04-28T13:16:34;4.93;;;3.00;;
78057;SDS011;67265;52.514;13.292;2023-04-28T13:19:02;6.70;;;2.85;;
78057;SDS011;67265;52.514;13.292;2023-04-28T13:21:29;8.38;;;3.10;;
78057;SDS011;67265;52.514;13.292;2023-04-28T13:23:55;3.25;;;2.45;;
78057;SDS011;67265;52.514;13.292;2023-04-28T13:26:22;6.40;;;2.50;;
78057;SDS011;67265;52.514;13.292;2023-04-28T13:28:52;5.97;;;2.55;;
78057;SDS011;67265;52.514;13.292;2023-04-28T13:31:18;9.43;;;3.03;;
78057;SDS011;67265;52.514;13.292;2023-04-28T13:33:45;8.18;;;3.10;;
78057;SDS011;67265;52.514;13.292;2023-04-28T13:36:11;4.72;;;2.55;;
78057;SDS011;67265;52.514;13.292;2023-04-28T13:38:41;5.55;;;2.95;;
78057;SDS011;67265;52.514;13.292;2023-04-28T13:41:11;5.85;;;3.10;;
78057;SDS011;67265;52.514;13.292;2023-04-28T13:43:37;5.75;;;3.00;;
78057;SDS011;67265;52.514;13.292;2023-04-28T13:46:04;6.95;;;3.28;;
78057;SDS011;67265;52.514;13.292;2023-04-28T13:48:34;8.00;;;3.38;;
78057;SDS011;67265;52.514;13.292;2023-04-28T13:51:01;5.53;;;2.88;;
78057;SDS011;67265;52.514;13.292;2023-04-28T13:53:29;6.07;;;3.08;;
78057;SDS011;67265;52.514;13.292;2023-04-28T13:55:56;9.75;;;3.42;;
78057;SDS011;67265;52.514;13.292;2023-04-28T13:58:24;7.78;;;3.22;;
78057;SDS011;67265;52.514;13.292;2023-04-28T14:00:54;5.03;;;2.78;;
78057;SDS011;67265;52.514;13.292;2023-04-28T14:03:22;6.53;;;3.13;;
78057;SDS011;67265;52.514;13.292;2023-04-28T14:05:50;8.13;;;3.90;;
78057;SDS011;67265;52.514;13.292;2023-04-28T14:08:17;8.65;;;3.58;;
78057;SDS011;67265;52.514;13.292;2023-04-28T14:10:46;6.90;;;3.80;;
78057;SDS011;67265;52.514;13.292;2023-04-28T14:13:13;7.50;;;3.95;;
78057;SDS011;67265;52.514;13.292;2023-04-28T14:15:40;7.25;;;3.50;;
78057;SDS011;67265;52.514;13.292;2023-04-28T14:18:22;8.88;;;3.10;;
78057;SDS011;67265;52.514;13.292;2023-04-28T14:20:49;7.45;;;2.88;;
78057;SDS011;67265;52.514;13.292;2023-04-28T14:23:16;5.88;;;3.30;;
78057;SDS011;67265;52.514;13.292;2023-04-28T14:25:42;7.78;;;3.33;;
78057;SDS011;67265;52.514;13.292;2023-04-28T14:28:09;5.25;;;3.13;;
78057;SDS011;67265;52.514;13.292;2023-04-28T14:30:35;5.72;;;2.95;;
78057;SDS011;67265;52.514;13.292;2023-04-28T14:33:02;6.95;;;3.20;;
78057;SDS011;67265;52.514;13.292;2023-04-28T14:35:28;7.40;;;3.80;;
78057;SDS011;67265;52.514;13.292;2023-04-28T14:37:56;8.55;;;3.33;;
78057;SDS011;67265;52.514;13.292;2023-04-28T14:40:23;9.85;;;3.60;;
78057;SDS011;67265;52.514;13.292;2023-04-28T14:42:50;6.40;;;3.40;;
78057;SDS011;67265;52.514;13.292;2023-04-28T14:45:18;8.38;;;3.50;;
78057;SDS011;67265;52.514;13.292;2023-04-28T14:47:44;6.65;;;3.58;;
78057;SDS011;67265;52.514;13.292;2023-04-28T14:50:11;5.95;;;3.38;;
78057;SDS011;67265;52.514;13.292;2023-04-28T14:52:39;5.78;;;3.17;;
78057;SDS011;67265;52.514;13.292;2023-04-28T14:55:06;7.70;;;3.20;;
78057;SDS011;67265;52.514;13.292;2023-04-28T14:57:33;5.85;;;2.80;;
78057;SDS011;67265;52.514;13.292;2023-04-28T15:00:00;7.95;;;3.30;;
78057;SDS011;67265;52.514;13.292;2023-04-28T15:02:27;5.53;;;3.08;;
78057;SDS011;67265;52.514;13.292;2023-04-28T15:04:55;5.85;;;3.13;;
78057;SDS011;67265;52.514;13.292;2023-04-28T15:07:22;6.97;;;3.65;;
78057;SDS011;67265;52.514;13.292;2023-04-28T15:09:51;9.70;;;3.35;;
78057;SDS011;67265;52.514;13.292;2023-04-28T15:12:18;5.47;;;3.35;;
78057;SDS011;67265;52.514;13.292;2023-04-28T15:14:46;9.10;;;3.30;;
78057;SDS011;67265;52.514;13.292;2023-04-28T15:17:12;9.77;;;3.28;;
78057;SDS011;67265;52.514;13.292;2023-04-28T15:19:39;8.02;;;3.58;;
78057;SDS011;67265;52.514;13.292;2023-04-28T15:22:05;7.13;;;3.35;;
78057;SDS011;67265;52.514;13.292;2023-04-28T15:24:32;7.63;;;4.15;;
78057;SDS011;67265;52.514;13.292;2023-04-28T15:26:58;9.35;;;3.50;;
78057;SDS011;67265;52.514;13.292;2023-04-28T15:29:25;9.77;;;3.83;;
78057;SDS011;67265;52.514;13.292;2023-04-28T15:31:51;7.95;;;3.53;;